createdAt,value
2019-03-19T00:01:00.699Z,100613.09
2019-03-19T00:02:02.113Z,100619.44
2019-03-19T00:03:03.621Z,100616.91
2019-03-19T00:04:05.029Z,100621.44
2019-03-19T00:05:06.635Z,100617.08
2019-03-19T00:06:08.154Z,100617.56
2019-03-19T00:07:09.654Z,100625.11
2019-03-19T00:08:11.034Z,100624.25
2019-03-19T00:09:12.433Z,100632.64
2019-03-19T00:10:13.909Z,100630.95
2019-03-19T00:11:15.310Z,100629.13
2019-03-19T00:12:16.965Z,100628.79
2019-03-19T00:13:19.367Z,100637.99
2019-03-19T00:14:20.778Z,100639.84
2019-03-19T00:15:22.198Z,100634.15
2019-03-19T00:16:23.611Z,100633.29
2019-03-19T00:17:25.189Z,100638.16
2019-03-19T00:18:26.563Z,100644.86
2019-03-19T00:19:27.965Z,100633.97
2019-03-19T00:20:29.344Z,100641.53
2019-03-19T00:21:30.739Z,100645.20
2019-03-19T00:22:32.152Z,100642.01
2019-03-19T00:23:35.815Z,100653.58
2019-03-19T00:24:37.236Z,100649.22
2019-03-19T00:25:38.652Z,100649.22
2019-03-19T00:26:40.060Z,100658.59
2019-03-19T00:27:41.621Z,100651.56
2019-03-19T00:28:42.995Z,100648.53
2019-03-19T00:29:44.396Z,100649.70
2019-03-19T00:30:45.774Z,100654.58
2019-03-19T00:31:47.163Z,100655.58
2019-03-19T00:32:48.561Z,100653.03
2019-03-19T00:33:50.070Z,100663.61
2019-03-19T00:34:51.591Z,100667.63
2019-03-19T00:35:52.993Z,100665.61
2019-03-19T00:36:54.405Z,100667.94
2019-03-19T00:37:55.806Z,100672.30
2019-03-19T00:38:57.288Z,100680.34
2019-03-19T00:39:58.695Z,100683.02
2019-03-19T00:41:00.074Z,100685.69
2019-03-19T00:42:01.573Z,100687.86
2019-03-19T00:43:03.253Z,100689.71
2019-03-19T00:44:04.662Z,100687.38
2019-03-19T00:45:10.350Z,100686.17
2019-03-19T00:46:11.763Z,100700.77
2019-03-19T00:47:13.168Z,100696.23
2019-03-19T00:48:14.597Z,100695.41
2019-03-19T00:49:16.078Z,100705.48
2019-03-19T00:50:17.477Z,100703.28
2019-03-19T00:51:18.955Z,100705.48
2019-03-19T00:52:20.361Z,100698.44
2019-03-19T00:53:21.811Z,100713.17
2019-03-19T00:54:23.794Z,100713.17
2019-03-19T00:55:25.203Z,100713.17
2019-03-19T00:56:26.619Z,100714.98
2019-03-19T00:57:28.132Z,100719.35
2019-03-19T00:58:29.684Z,100718.32
2019-03-19T00:59:31.061Z,100720.17
2019-03-19T01:00:32.561Z,100717.49
2019-03-19T01:01:33.940Z,100725.19
2019-03-19T01:02:35.336Z,100730.03
2019-03-19T01:03:36.993Z,100728.20
2019-03-19T01:04:38.509Z,100735.39
2019-03-19T01:05:39.917Z,100733.05
2019-03-19T01:06:41.433Z,100732.23
2019-03-19T01:07:42.837Z,100742.42
2019-03-19T01:08:44.503Z,100743.42
2019-03-19T01:09:45.993Z,100738.92
2019-03-19T01:10:47.498Z,100749.98
2019-03-19T01:11:48.870Z,100748.64
2019-03-19T01:12:50.271Z,100754.48
2019-03-19T01:13:51.692Z,100751.32
2019-03-19T01:14:53.103Z,100755.34
2019-03-19T01:15:54.517Z,100758.02
2019-03-19T01:16:55.928Z,100751.97
2019-03-19T01:17:57.332Z,100757.33
2019-03-19T01:18:58.759Z,100756.47
2019-03-19T01:20:01.239Z,100763.17
2019-03-19T01:21:02.633Z,100758.81
2019-03-19T01:22:04.001Z,100756.13
2019-03-19T01:23:05.393Z,100762.13
2019-03-19T01:24:06.936Z,100765.94
2019-03-19T01:25:08.912Z,100770.82
2019-03-19T01:26:10.326Z,100772.16
2019-03-19T01:27:11.735Z,100766.45
2019-03-19T01:28:13.148Z,100775.83
2019-03-19T01:29:14.552Z,100782.18
2019-03-19T01:30:16.232Z,100779.64
2019-03-19T01:31:17.630Z,100785.51
2019-03-19T01:32:19.009Z,100785.99
2019-03-19T01:33:20.409Z,100785.51
2019-03-19T01:34:21.801Z,100794.02
2019-03-19T01:35:23.208Z,100799.03
2019-03-19T01:36:24.630Z,100791.00
2019-03-19T01:37:26.043Z,100796.87
2019-03-19T01:38:27.556Z,100788.32
2019-03-19T01:39:29.163Z,100791.17
2019-03-19T01:40:30.542Z,100798.69
2019-03-19T01:41:31.940Z,100799.20
2019-03-19T01:42:33.317Z,100800.89
2019-03-19T01:43:34.712Z,100802.36
2019-03-19T01:44:36.265Z,100802.70
2019-03-19T01:45:37.676Z,100808.06
2019-03-19T01:46:39.093Z,100807.72
2019-03-19T01:47:40.501Z,100809.05
2019-03-19T01:48:41.915Z,100810.73
2019-03-19T01:49:43.468Z,100809.05
2019-03-19T01:50:45.852Z,100818.42
2019-03-19T01:51:47.248Z,100819.28
2019-03-19T01:52:48.631Z,100822.45
2019-03-19T01:53:50.128Z,100823.78
2019-03-19T01:54:51.543Z,100832.68
2019-03-19T01:55:53.120Z,100826.81
2019-03-19T01:56:55.053Z,100829.01
2019-03-19T01:57:56.478Z,100835.19
2019-03-19T01:58:57.886Z,100839.20
2019-03-19T01:59:59.332Z,100849.09
2019-03-19T02:01:00.702Z,100842.05
2019-03-19T02:02:02.108Z,100838.86
2019-03-19T02:03:03.483Z,100845.55
2019-03-19T02:04:04.980Z,100850.44
2019-03-19T02:05:06.516Z,100852.25
2019-03-19T02:06:07.926Z,100847.89
2019-03-19T02:07:09.332Z,100846.90
2019-03-19T02:08:10.747Z,100847.76
2019-03-19T02:09:12.148Z,100846.90
2019-03-19T02:10:13.653Z,100846.90
2019-03-19T02:11:15.048Z,100854.45
2019-03-19T02:12:16.439Z,100849.58
2019-03-19T02:13:17.809Z,100844.73
2019-03-19T02:14:19.207Z,100845.20
2019-03-19T02:15:20.657Z,100839.86
2019-03-19T02:16:25.968Z,100847.41
2019-03-19T02:17:27.380Z,100855.58
2019-03-19T02:18:28.794Z,100848.41
2019-03-19T02:19:30.307Z,100850.73
2019-03-19T02:20:31.711Z,100851.56
2019-03-19T02:21:33.085Z,100855.58
2019-03-19T02:22:34.481Z,100856.57
2019-03-19T02:23:35.866Z,100839.67
2019-03-19T02:24:37.261Z,100852.55
2019-03-19T02:25:38.654Z,100854.41
2019-03-19T02:26:40.146Z,100855.74
2019-03-19T02:27:42.088Z,100860.23
2019-03-19T02:28:43.609Z,100861.10
2019-03-19T02:29:45.020Z,100863.27
2019-03-19T02:30:46.420Z,100858.90
2019-03-19T02:31:48.777Z,100857.91
2019-03-19T02:32:50.174Z,100865.25
2019-03-19T02:33:51.552Z,100856.22
2019-03-19T02:34:52.958Z,100858.08
2019-03-19T02:35:54.360Z,100863.08
2019-03-19T02:36:55.766Z,100864.42
2019-03-19T02:37:57.178Z,100860.41
2019-03-19T02:38:58.592Z,100864.42
2019-03-19T02:40:00.017Z,100865.77
2019-03-19T02:41:01.414Z,100859.06
2019-03-19T02:42:02.779Z,100857.73
2019-03-19T02:43:04.177Z,100854.70
2019-03-19T02:44:05.547Z,100863.43
2019-03-19T02:45:10.312Z,100863.91
2019-03-19T02:46:11.798Z,100853.84
2019-03-19T02:47:13.210Z,100861.40
2019-03-19T02:48:14.610Z,100861.75
2019-03-19T02:49:16.043Z,100853.84
2019-03-19T02:50:17.456Z,100865.41
2019-03-19T02:51:18.926Z,100863.56
2019-03-19T02:52:20.287Z,100860.54
2019-03-19T02:53:21.678Z,100869.91
2019-03-19T02:54:23.108Z,100861.40
2019-03-19T02:55:24.500Z,100863.56
2019-03-19T02:56:32.430Z,100864.91
2019-03-19T02:57:30.388Z,100873.45
2019-03-19T02:58:32.529Z,100867.58
2019-03-19T02:59:33.917Z,100873.45
2019-03-19T03:00:35.304Z,100869.43
2019-03-19T03:01:43.373Z,100868.22
2019-03-19T03:02:44.942Z,100875.78
2019-03-19T03:03:46.847Z,100876.26
2019-03-19T03:04:48.222Z,100875.09
2019-03-19T03:05:49.617Z,100883.95
2019-03-19T03:06:51.006Z,100883.59
2019-03-19T03:07:52.404Z,100891.63
2019-03-19T03:08:53.775Z,100888.95
2019-03-19T03:09:55.180Z,100884.94
2019-03-19T03:10:56.559Z,100884.59
2019-03-19T03:11:57.962Z,100890.30
2019-03-19T03:12:59.534Z,100889.81
2019-03-19T03:14:01.033Z,100890.16
2019-03-19T03:15:02.818Z,100896.00
2019-03-19T03:16:04.202Z,100897.68
2019-03-19T03:17:05.598Z,100902.05
2019-03-19T03:18:07.000Z,100901.70
2019-03-19T03:19:08.380Z,100906.06
2019-03-19T03:20:11.302Z,100903.39
2019-03-19T03:21:12.757Z,100904.38
2019-03-19T03:22:14.157Z,100907.41
2019-03-19T03:23:15.572Z,100911.93
2019-03-19T03:24:17.970Z,100913.62
2019-03-19T03:25:19.355Z,100918.11
2019-03-19T03:26:20.739Z,100920.44
2019-03-19T03:27:22.137Z,100926.31
2019-03-19T03:28:23.709Z,100923.63
2019-03-19T03:29:25.100Z,100910.72
2019-03-19T03:30:26.485Z,100925.80
2019-03-19T03:31:27.873Z,100933.00
2019-03-19T03:32:29.275Z,100922.30
2019-03-19T03:33:30.814Z,100922.30
2019-03-19T03:34:32.202Z,100928.00
2019-03-19T03:35:33.690Z,100931.50
2019-03-19T03:36:35.084Z,100936.73
2019-03-19T03:37:36.502Z,100939.88
2019-03-19T03:38:37.864Z,100939.88
2019-03-19T03:39:39.250Z,100939.05
2019-03-19T03:40:40.648Z,100941.57
2019-03-19T03:41:42.026Z,100939.53
2019-03-19T03:42:43.927Z,100947.09
2019-03-19T03:43:45.407Z,100947.57
2019-03-19T03:44:46.888Z,100953.91
2019-03-19T03:45:48.269Z,100955.25
2019-03-19T03:46:49.657Z,100950.06
2019-03-19T03:47:51.042Z,100954.72
2019-03-19T03:48:52.550Z,100957.88
2019-03-19T03:49:53.932Z,100958.52
2019-03-19T03:50:55.341Z,100955.97
2019-03-19T03:51:56.823Z,100958.30
2019-03-19T03:52:58.228Z,100953.45
2019-03-19T03:53:59.735Z,100956.42
2019-03-19T03:55:01.282Z,100961.78
2019-03-19T03:56:02.811Z,100964.46
2019-03-19T03:57:04.200Z,100971.50
2019-03-19T03:58:05.585Z,100961.44
2019-03-19T03:59:07.054Z,100971.16
2019-03-19T04:00:22.610Z,100968.13
2019-03-19T04:01:24.007Z,100973.32
2019-03-19T04:02:25.379Z,100974.88
2019-03-19T04:03:26.788Z,100970.16
2019-03-19T04:04:28.182Z,100972.14
2019-03-19T04:05:29.581Z,100970.45
2019-03-19T04:06:30.961Z,100981.16
2019-03-19T04:07:32.343Z,100975.46
2019-03-19T04:08:33.735Z,100982.98
2019-03-19T04:09:35.172Z,100975.81
2019-03-19T04:10:36.551Z,100990.02
2019-03-19T04:11:37.962Z,100986.01
2019-03-19T04:12:39.433Z,100986.01
2019-03-19T04:13:40.832Z,100993.56
2019-03-19T04:14:42.248Z,100991.88
2019-03-19T04:15:43.633Z,100995.38
2019-03-19T04:16:45.147Z,100999.39
2019-03-19T04:17:46.519Z,100998.92
2019-03-19T04:18:47.904Z,101004.41
2019-03-19T04:19:49.474Z,101000.73
2019-03-19T04:20:50.850Z,101004.91
2019-03-19T04:21:52.249Z,100997.70
2019-03-19T04:22:53.733Z,101011.95
2019-03-19T04:23:55.127Z,101012.94
2019-03-19T04:24:56.622Z,101010.74
2019-03-19T04:25:58.033Z,101012.59
2019-03-19T04:26:59.394Z,101013.77
2019-03-19T04:28:00.789Z,101007.59
2019-03-19T04:29:02.261Z,101023.30
2019-03-19T04:30:12.144Z,101013.93
2019-03-19T04:31:13.502Z,101013.42
2019-03-19T04:32:14.982Z,101013.64
2019-03-19T04:33:16.377Z,101019.64
2019-03-19T04:34:17.745Z,101015.63
2019-03-19T04:35:20.134Z,101021.10
2019-03-19T04:36:21.527Z,101019.28
2019-03-19T04:37:23.016Z,101016.09
2019-03-19T04:38:24.413Z,101023.66
2019-03-19T04:39:26.000Z,101029.48
2019-03-19T04:40:27.432Z,101022.31
2019-03-19T04:41:28.811Z,101033.02
2019-03-19T04:42:30.218Z,101027.67
2019-03-19T04:43:31.614Z,101027.32
2019-03-19T04:44:33.114Z,101030.83
2019-03-19T04:45:34.535Z,101031.69
2019-03-19T04:46:35.919Z,101043.37
2019-03-19T04:47:37.412Z,101040.19
2019-03-19T04:48:38.914Z,101041.19
2019-03-19T04:49:40.296Z,101044.72
2019-03-19T04:50:42.739Z,101044.72
2019-03-19T04:51:44.104Z,101047.75
2019-03-19T04:52:45.504Z,101052.11
2019-03-19T04:53:47.890Z,101050.77
2019-03-19T04:54:49.288Z,101050.27
2019-03-19T04:55:50.844Z,101055.62
2019-03-19T04:56:52.224Z,101060.15
2019-03-19T04:57:53.621Z,101063.17
2019-03-19T04:58:55.104Z,101069.87
2019-03-19T04:59:58.945Z,101064.16
2019-03-19T05:00:59.939Z,101070.86
2019-03-19T05:02:01.319Z,101067.67
2019-03-19T05:03:02.961Z,101075.23
2019-03-19T05:04:04.368Z,101069.52
2019-03-19T05:05:08.146Z,101077.91
2019-03-19T05:06:09.551Z,101084.59
2019-03-19T05:07:10.943Z,101078.73
2019-03-19T05:08:12.330Z,101087.63
2019-03-19T05:09:13.720Z,101090.78
2019-03-19T05:10:16.141Z,101086.41
2019-03-19T05:11:17.700Z,101086.41
2019-03-19T05:12:19.082Z,101092.27
2019-03-19T05:13:20.473Z,101099.80
2019-03-19T05:14:21.861Z,101099.45
2019-03-19T05:15:23.305Z,101096.77
2019-03-19T05:16:24.719Z,101098.45
2019-03-19T05:17:26.113Z,101098.62
2019-03-19T05:18:27.544Z,101102.47
2019-03-19T05:19:29.098Z,101099.32
2019-03-19T05:20:30.483Z,101104.17
2019-03-19T05:21:32.001Z,101110.51
2019-03-19T05:22:33.380Z,101107.00
2019-03-19T05:23:34.784Z,101112.70
2019-03-19T05:24:36.165Z,101115.39
2019-03-19T05:25:37.563Z,101112.70
2019-03-19T05:26:39.075Z,101120.73
2019-03-19T05:27:40.486Z,101125.59
2019-03-19T05:28:41.896Z,101124.75
2019-03-19T05:29:43.317Z,101125.59
2019-03-19T05:30:44.709Z,101130.11
2019-03-19T05:31:46.203Z,101129.60
2019-03-19T05:32:47.592Z,101130.47
2019-03-19T05:33:49.575Z,101130.47
2019-03-19T05:34:51.058Z,101133.14
2019-03-19T05:35:52.465Z,101137.16
2019-03-19T05:36:53.959Z,101137.16
2019-03-19T05:37:55.347Z,101137.63
2019-03-19T05:38:56.733Z,101142.52
2019-03-19T05:39:58.125Z,101136.80
2019-03-19T05:40:59.512Z,101136.30
2019-03-19T05:42:01.019Z,101143.34
2019-03-19T05:43:02.400Z,101144.84
2019-03-19T05:44:03.799Z,101142.86
2019-03-19T05:45:08.273Z,101143.34
2019-03-19T05:46:09.664Z,101145.03
2019-03-19T05:47:11.053Z,101143.22
2019-03-19T05:48:12.438Z,101146.88
2019-03-19T05:49:13.830Z,101154.75
2019-03-19T05:50:17.021Z,101156.60
2019-03-19T05:51:18.396Z,101158.93
2019-03-19T05:52:19.817Z,101154.75
2019-03-19T05:53:21.197Z,101164.28
2019-03-19T05:54:22.603Z,101163.94
2019-03-19T05:55:23.975Z,101181.18
2019-03-19T05:56:28.914Z,101169.28
2019-03-19T05:57:30.320Z,101174.99
2019-03-19T05:58:31.692Z,101179.01
2019-03-19T05:59:34.199Z,101183.03
2019-03-19T06:00:37.479Z,101183.03
2019-03-19T06:01:38.976Z,101189.72
2019-03-19T06:02:41.528Z,101185.70
2019-03-19T06:03:42.909Z,101189.37
2019-03-19T06:04:44.285Z,101191.06
2019-03-19T06:05:45.671Z,101191.06
2019-03-19T06:06:47.048Z,101191.41
2019-03-19T06:07:48.469Z,101203.30
2019-03-19T06:08:49.853Z,101201.48
2019-03-19T06:09:51.241Z,101203.66
2019-03-19T06:10:52.729Z,101205.70
2019-03-19T06:11:54.109Z,101206.63
2019-03-19T06:12:55.506Z,101199.59
2019-03-19T06:13:56.889Z,101205.37
2019-03-19T06:14:58.286Z,101207.77
2019-03-19T06:15:59.665Z,101202.13
2019-03-19T06:17:01.066Z,101202.19
2019-03-19T06:18:02.615Z,101198.63
2019-03-19T06:19:04.004Z,101199.33
2019-03-19T06:20:08.792Z,101203.77
2019-03-19T06:21:10.175Z,101206.86
2019-03-19T06:22:11.560Z,101205.94
2019-03-19T06:23:13.098Z,101210.72
2019-03-19T06:24:14.477Z,101205.42
2019-03-19T06:25:16.079Z,101208.52
2019-03-19T06:26:17.545Z,101216.84
2019-03-19T06:27:18.938Z,101209.25
2019-03-19T06:28:20.411Z,101214.19
2019-03-19T06:29:21.798Z,101215.43
2019-03-19T06:30:23.785Z,101213.67
2019-03-19T06:31:25.171Z,101218.10
2019-03-19T06:32:26.544Z,101224.92
2019-03-19T06:33:28.109Z,101226.67
2019-03-19T06:34:29.494Z,101221.88
2019-03-19T06:35:30.880Z,101224.96
2019-03-19T06:36:32.265Z,101224.37
2019-03-19T06:37:33.645Z,101229.66
2019-03-19T06:38:35.243Z,101226.03
2019-03-19T06:39:36.632Z,101228.29
2019-03-19T06:40:38.024Z,101237.56
2019-03-19T06:41:39.421Z,101229.56
2019-03-19T06:42:41.807Z,101237.32
2019-03-19T06:43:43.215Z,101233.69
2019-03-19T06:44:44.625Z,101233.91
2019-03-19T06:45:45.981Z,101233.16
2019-03-19T06:46:47.357Z,101237.23
2019-03-19T06:47:48.761Z,101236.08
2019-03-19T06:48:50.180Z,101232.27
2019-03-19T06:49:51.571Z,101239.50
2019-03-19T06:50:52.956Z,101239.20
2019-03-19T06:51:54.341Z,101235.04
2019-03-19T06:52:55.829Z,101245.99
2019-03-19T06:53:57.258Z,101241.31
2019-03-19T06:54:58.633Z,101249.55
2019-03-19T06:56:00.042Z,101243.18
2019-03-19T06:57:01.453Z,101250.94
2019-03-19T06:58:10.581Z,101248.95
2019-03-19T06:59:06.452Z,101248.81
2019-03-19T07:00:20.482Z,101248.64
2019-03-19T07:01:21.861Z,101248.98
2019-03-19T07:02:23.261Z,101251.72
2019-03-19T07:03:24.613Z,101252.23
2019-03-19T07:04:26.081Z,101253.06
2019-03-19T07:05:27.451Z,101248.89
2019-03-19T07:06:28.831Z,101256.47
2019-03-19T07:07:30.680Z,101263.19
2019-03-19T07:08:32.212Z,101267.56
2019-03-19T07:09:33.607Z,101261.84
2019-03-19T07:10:34.996Z,101266.22
2019-03-19T07:11:36.382Z,101271.94
2019-03-19T07:12:37.874Z,101267.39
2019-03-19T07:13:39.264Z,101267.27
2019-03-19T07:14:40.689Z,101267.61
2019-03-19T07:15:42.073Z,101260.89
2019-03-19T07:16:43.473Z,101266.61
2019-03-19T07:17:44.855Z,101264.41
2019-03-19T07:18:46.247Z,101261.23
2019-03-19T07:19:47.640Z,101267.95
2019-03-19T07:20:49.043Z,101258.38
2019-03-19T07:21:50.416Z,101266.61
2019-03-19T07:22:51.807Z,101264.41
2019-03-19T07:23:53.199Z,101268.44
2019-03-19T07:24:54.602Z,101266.61
2019-03-19T07:25:55.986Z,101264.41
2019-03-19T07:26:57.385Z,101265.27
2019-03-19T07:27:58.766Z,101269.30
2019-03-19T07:29:00.166Z,101274.67
2019-03-19T07:30:02.013Z,101281.04
2019-03-19T07:31:03.383Z,101286.76
2019-03-19T07:32:04.782Z,101289.45
2019-03-19T07:33:06.195Z,101291.62
2019-03-19T07:34:07.645Z,101291.62
2019-03-19T07:35:09.130Z,101292.96
2019-03-19T07:36:10.508Z,101295.17
2019-03-19T07:37:12.887Z,101297.98
2019-03-19T07:38:14.734Z,101300.19
2019-03-19T07:39:16.127Z,101298.98
2019-03-19T07:40:17.509Z,101299.98
2019-03-19T07:41:18.899Z,101305.87
2019-03-19T07:42:20.281Z,101307.55
2019-03-19T07:43:21.669Z,101301.32
2019-03-19T07:44:23.058Z,101306.70
2019-03-19T07:45:24.587Z,101312.93
2019-03-19T07:46:25.961Z,101308.20
2019-03-19T07:47:27.460Z,101306.00
2019-03-19T07:48:28.849Z,101305.00
2019-03-19T07:49:30.343Z,101305.00
2019-03-19T07:50:31.855Z,101313.23
2019-03-19T07:51:33.343Z,101303.96
2019-03-19T07:52:34.735Z,101305.66
2019-03-19T07:53:36.116Z,101312.50
2019-03-19T07:54:37.507Z,101302.75
2019-03-19T07:55:38.935Z,101309.47
2019-03-19T07:56:40.322Z,101298.37
2019-03-19T07:57:41.929Z,101313.50
2019-03-19T07:58:45.561Z,101312.16
2019-03-19T07:59:46.666Z,101324.24
2019-03-19T08:00:48.164Z,101310.33
2019-03-19T08:01:49.542Z,101319.87
2019-03-19T08:02:50.937Z,101318.88
2019-03-19T08:03:52.314Z,101324.59
2019-03-19T08:04:53.699Z,101320.56
2019-03-19T08:05:55.159Z,101325.10
2019-03-19T08:06:56.529Z,101326.93
2019-03-19T08:07:57.911Z,101320.22
2019-03-19T08:08:59.297Z,101328.27
2019-03-19T08:10:00.672Z,101329.61
2019-03-19T08:11:02.091Z,101339.02
2019-03-19T08:12:03.765Z,101338.02
2019-03-19T08:13:05.253Z,101341.56
2019-03-19T08:14:06.634Z,101341.56
2019-03-19T08:15:11.622Z,101342.05
2019-03-19T08:16:14.123Z,101343.39
2019-03-19T08:17:16.492Z,101347.42
2019-03-19T08:18:17.890Z,101350.11
2019-03-19T08:19:19.260Z,101348.77
2019-03-19T08:20:20.762Z,101355.00
2019-03-19T08:21:22.607Z,101348.42
2019-03-19T08:22:24.038Z,101353.31
2019-03-19T08:23:25.520Z,101360.02
2019-03-19T08:24:26.912Z,101351.97
2019-03-19T08:25:28.306Z,101355.48
2019-03-19T08:26:29.815Z,101351.10
2019-03-19T08:27:31.189Z,101348.28
2019-03-19T08:28:33.807Z,101353.17
2019-03-19T08:29:35.390Z,101350.48
2019-03-19T08:30:36.797Z,101356.69
2019-03-19T08:31:38.395Z,101349.15
2019-03-19T08:32:39.775Z,101356.21
2019-03-19T08:33:41.178Z,101357.81
2019-03-19T08:34:42.556Z,101353.17
2019-03-19T08:35:43.951Z,101358.89
2019-03-19T08:36:45.440Z,101358.55
2019-03-19T08:37:46.814Z,101354.52
2019-03-19T08:38:48.194Z,101358.03
2019-03-19T08:39:49.579Z,101357.20
2019-03-19T08:40:51.173Z,101361.58
2019-03-19T08:41:52.584Z,101348.77
2019-03-19T08:42:53.977Z,101351.83
2019-03-19T08:43:55.367Z,101352.80
2019-03-19T08:44:57.760Z,101352.80
2019-03-19T08:45:59.151Z,101356.48
2019-03-19T08:47:00.552Z,101361.16
2019-03-19T08:48:01.939Z,101357.12
2019-03-19T08:49:03.332Z,101355.95
2019-03-19T08:50:08.312Z,101361.66
2019-03-19T08:51:09.788Z,101358.28
2019-03-19T08:52:12.297Z,101358.41
2019-03-19T08:53:13.691Z,101363.44
2019-03-19T08:54:15.083Z,101363.95
2019-03-19T08:55:16.466Z,101357.02
2019-03-19T08:56:17.956Z,101365.42
2019-03-19T08:57:19.355Z,101369.63
2019-03-19T08:58:20.738Z,101367.41
2019-03-19T08:59:23.139Z,101379.50
2019-03-19T09:00:25.820Z,101365.89
2019-03-19T09:01:27.218Z,101374.30
2019-03-19T09:02:28.697Z,101363.69
2019-03-19T09:03:30.084Z,101378.45
2019-03-19T09:04:31.466Z,101383.00
2019-03-19T09:05:32.850Z,101381.14
2019-03-19T09:06:34.225Z,101386.67
2019-03-19T09:07:35.685Z,101392.39
2019-03-19T09:08:37.064Z,101386.51
2019-03-19T09:09:38.440Z,101388.15
2019-03-19T09:10:39.836Z,101400.93
2019-03-19T09:11:41.720Z,101407.64
2019-03-19T09:12:43.301Z,101403.27
2019-03-19T09:13:44.689Z,101410.33
2019-03-19T09:14:46.083Z,101413.02
2019-03-19T09:15:47.463Z,101413.37
2019-03-19T09:16:48.956Z,101412.89
2019-03-19T09:17:50.347Z,101416.05
2019-03-19T09:18:51.834Z,101413.88
2019-03-19T09:19:53.236Z,101414.23
2019-03-19T09:20:54.612Z,101411.03
2019-03-19T09:21:56.005Z,101413.72
2019-03-19T09:22:57.416Z,101413.23
2019-03-19T09:23:58.904Z,101411.03
2019-03-19T09:25:00.333Z,101412.72
2019-03-19T09:26:01.672Z,101410.90
2019-03-19T09:27:03.062Z,101411.03
2019-03-19T09:28:04.597Z,101409.20
2019-03-19T09:29:16.097Z,101417.61
2019-03-19T09:30:17.859Z,101415.76
2019-03-19T09:31:19.370Z,101418.80
2019-03-19T09:32:20.780Z,101417.10
2019-03-19T09:33:22.189Z,101418.73
2019-03-19T09:34:23.663Z,101419.95
2019-03-19T09:35:26.358Z,101416.41
2019-03-19T09:36:27.947Z,101420.78
2019-03-19T09:37:29.334Z,101418.95
2019-03-19T09:38:31.102Z,101420.78
2019-03-19T09:39:32.483Z,101418.09
2019-03-19T09:40:33.852Z,101419.44
2019-03-19T09:41:35.250Z,101423.81
2019-03-19T09:42:38.161Z,101424.52
2019-03-19T09:43:39.571Z,101420.01
2019-03-19T09:44:40.961Z,101423.52
2019-03-19T09:45:42.445Z,101427.55
2019-03-19T09:46:43.832Z,101428.77
2019-03-19T09:47:45.813Z,101426.56
2019-03-19T09:48:47.799Z,101430.23
2019-03-19T09:49:49.216Z,101422.53
2019-03-19T09:50:50.614Z,101419.84
2019-03-19T09:51:51.997Z,101427.90
2019-03-19T09:52:53.398Z,101429.59
2019-03-19T09:53:54.943Z,101434.97
2019-03-19T09:54:56.329Z,101436.17
2019-03-19T09:55:57.711Z,101437.88
2019-03-19T09:56:59.099Z,101432.98
2019-03-19T09:58:00.489Z,101430.29
2019-03-19T09:59:02.064Z,101437.01
2019-03-19T10:00:07.175Z,101434.32
2019-03-19T10:01:08.580Z,101436.02
2019-03-19T10:02:09.994Z,101440.39
2019-03-19T10:03:11.407Z,101438.22
2019-03-19T10:04:12.812Z,101431.50
2019-03-19T10:05:14.198Z,101439.91
2019-03-19T10:06:15.595Z,101438.56
2019-03-19T10:07:16.980Z,101446.11
2019-03-19T10:08:18.470Z,101447.11
2019-03-19T10:09:20.057Z,101438.34
2019-03-19T10:10:22.266Z,101448.61
2019-03-19T10:11:23.606Z,101447.75
2019-03-19T10:12:24.984Z,101443.72
2019-03-19T10:13:29.824Z,101448.27
2019-03-19T10:14:31.208Z,101445.70
2019-03-19T10:15:32.598Z,101449.26
2019-03-19T10:16:33.985Z,101452.42
2019-03-19T10:17:35.378Z,101452.08
2019-03-19T10:18:36.780Z,101453.06
2019-03-19T10:19:38.213Z,101459.78
2019-03-19T10:20:39.584Z,101452.72
2019-03-19T10:21:40.989Z,101451.38
2019-03-19T10:22:42.377Z,101460.42
2019-03-19T10:23:43.765Z,101451.66
2019-03-19T10:24:45.179Z,101464.61
2019-03-19T10:25:47.664Z,101458.89
2019-03-19T10:26:49.044Z,101458.89
2019-03-19T10:27:50.435Z,101460.36
2019-03-19T10:28:51.811Z,101455.86
2019-03-19T10:29:53.230Z,101461.23
2019-03-19T10:30:54.621Z,101452.30
2019-03-19T10:31:56.030Z,101455.00
2019-03-19T10:32:57.528Z,101459.72
2019-03-19T10:33:58.941Z,101454.86
2019-03-19T10:35:00.436Z,101454.70
2019-03-19T10:36:01.814Z,101456.55
2019-03-19T10:37:03.207Z,101459.25
2019-03-19T10:38:04.577Z,101457.91
2019-03-19T10:39:06.165Z,101457.39
2019-03-19T10:40:10.233Z,101455.34
2019-03-19T10:41:12.613Z,101455.21
2019-03-19T10:42:13.980Z,101454.70
2019-03-19T10:43:15.460Z,101459.08
2019-03-19T10:44:20.316Z,101459.94
2019-03-19T10:45:22.497Z,101467.65
2019-03-19T10:46:23.879Z,101469.34
2019-03-19T10:47:25.269Z,101464.45
2019-03-19T10:48:26.711Z,101459.59
2019-03-19T10:49:28.097Z,101461.93
2019-03-19T10:50:29.492Z,101472.51
2019-03-19T10:51:30.873Z,101468.13
2019-03-19T10:52:32.371Z,101472.16
2019-03-19T10:53:33.950Z,101463.27
2019-03-19T10:54:35.549Z,101469.28
2019-03-19T10:55:36.936Z,101464.27
2019-03-19T10:56:39.049Z,101471.63
2019-03-19T10:57:40.513Z,101476.00
2019-03-19T10:58:41.964Z,101480.86
2019-03-19T10:59:49.047Z,101477.69
2019-03-19T11:00:46.708Z,101483.55
2019-03-19T11:01:48.183Z,101480.86
2019-03-19T11:02:50.291Z,101478.52
2019-03-19T11:03:51.650Z,101482.07
2019-03-19T11:04:53.044Z,101491.31
2019-03-19T11:05:55.424Z,101470.34
2019-03-19T11:06:56.834Z,101482.42
2019-03-19T11:07:58.241Z,101481.56
2019-03-19T11:08:59.644Z,101486.94
2019-03-19T11:10:01.130Z,101481.56
2019-03-19T11:11:03.822Z,101486.58
2019-03-19T11:12:05.264Z,101489.62
2019-03-19T11:13:06.656Z,101491.82
2019-03-19T11:14:08.035Z,101493.16
2019-03-19T11:15:21.253Z,101496.33
2019-03-19T11:16:22.797Z,101490.48
2019-03-19T11:17:24.194Z,101501.77
2019-03-19T11:18:25.621Z,101492.52
2019-03-19T11:19:27.012Z,101498.37
2019-03-19T11:20:28.407Z,101503.27
2019-03-19T11:21:30.100Z,101500.23
2019-03-19T11:22:33.419Z,101500.23
2019-03-19T11:23:34.888Z,101501.41
2019-03-19T11:24:36.274Z,101504.96
2019-03-19T11:25:37.657Z,101503.62
2019-03-19T11:26:39.073Z,101498.73
2019-03-19T11:27:40.572Z,101499.59
2019-03-19T11:28:41.962Z,101495.69
2019-03-19T11:29:43.374Z,101497.90
2019-03-19T11:30:44.780Z,101500.07
2019-03-19T11:31:46.353Z,101495.34
2019-03-19T11:32:47.924Z,101494.34
2019-03-19T11:33:49.328Z,101481.08
2019-03-19T11:34:50.704Z,101487.63
2019-03-19T11:35:52.208Z,101496.20
2019-03-19T11:36:57.664Z,101496.20
2019-03-19T11:37:57.044Z,101494.98
2019-03-19T11:38:58.458Z,101503.39
2019-03-19T11:39:59.873Z,101505.73
2019-03-19T11:41:02.764Z,101502.56
2019-03-19T11:42:05.539Z,101505.25
2019-03-19T11:43:07.013Z,101508.06
2019-03-19T11:44:08.414Z,101510.75